createdAt,value
2023-04-14T00:02:11.136Z,96566.16
2023-04-14T00:04:37.899Z,96563.59
2023-04-14T00:07:04.517Z,96568.72
2023-04-14T00:09:31.105Z,96572.97
2023-04-14T00:11:57.930Z,96569.53
2023-04-14T00:14:24.438Z,96566.16
2023-04-14T00:16:51.190Z,96568.72
2023-04-14T00:19:17.795Z,96568.72
2023-04-14T00:21:44.586Z,96578.06
2023-04-14T00:24:11.205Z,96575.53
2023-04-14T00:26:37.761Z,96585.72
2023-04-14T00:29:04.443Z,96588.28
2023-04-14T00:31:31.048Z,96581.38
2023-04-14T00:33:57.566Z,96590.81
2023-04-14T00:36:24.090Z,96583.13
2023-04-14T00:38:50.700Z,96590.78
2023-04-14T00:41:17.261Z,96565.81
2023-04-14T00:43:43.828Z,96589.06
2023-04-14T00:46:10.344Z,96582.19
2023-04-14T00:48:37.037Z,96599.28
2023-04-14T00:51:04.165Z,96593.34
2023-04-14T00:53:31.683Z,96592.47
2023-04-14T00:55:58.777Z,96582.13
2023-04-14T00:58:25.435Z,96585.66
2023-04-14T01:00:55.446Z,96570.19
2023-04-14T01:03:24.584Z,96572.03
2023-04-14T01:05:51.530Z,96577.13
2023-04-14T01:08:18.445Z,96568.63
2023-04-14T01:11:10.561Z,96566.06
2023-04-14T01:14:18.294Z,96565.22
2023-04-14T01:16:45.548Z,96551.47
2023-04-14T01:19:30.924Z,96560.09
2023-04-14T01:21:58.064Z,96557.53
2023-04-14T01:24:38.061Z,96553.25
2023-04-14T01:27:51.196Z,96563.44
2023-04-14T01:30:29.131Z,96563.44
2023-04-14T01:32:56.732Z,96565.16
2023-04-14T01:35:41.349Z,96569.47
2023-04-14T01:38:09.974Z,96563.38
2023-04-14T01:40:37.250Z,96558.22
2023-04-14T01:43:05.713Z,96570.19
2023-04-14T01:45:36.970Z,96580.59
2023-04-14T01:48:03.905Z,96589.06
2023-04-14T01:50:30.531Z,96589.97
2023-04-14T01:52:57.090Z,96589.97
2023-04-14T01:55:23.788Z,96579.72
2023-04-14T01:57:51.145Z,96584.91
2023-04-14T02:00:18.047Z,96572.03
2023-04-14T02:02:45.503Z,96590.00
2023-04-14T02:05:13.393Z,96580.66
2023-04-14T02:07:40.935Z,96586.69
2023-04-14T02:10:09.638Z,96583.31
2023-04-14T02:12:37.440Z,96553.41
2023-04-14T02:15:04.205Z,96574.00
2023-04-14T02:17:30.918Z,96572.31
2023-04-14T02:19:57.454Z,96567.94
2023-04-14T02:22:24.016Z,96586.78
2023-04-14T02:24:51.412Z,96584.19
2023-04-14T02:27:21.159Z,96576.50
2023-04-14T02:29:50.572Z,96574.81
2023-04-14T02:32:20.416Z,96581.69
2023-04-14T02:35:01.841Z,96568.03
2023-04-14T02:37:33.833Z,96577.50
2023-04-14T02:40:02.185Z,96568.97
2023-04-14T02:42:28.975Z,96564.75
2023-04-14T02:45:06.634Z,96563.03
2023-04-14T02:47:34.911Z,96563.88
2023-04-14T02:50:02.604Z,96559.63
2023-04-14T02:52:31.382Z,96560.47
2023-04-14T02:54:58.676Z,96556.91
2023-04-14T02:57:25.900Z,96558.72
2023-04-14T02:59:52.890Z,96561.25
2023-04-14T03:02:19.559Z,96557.84
2023-04-14T03:04:46.767Z,96554.41
2023-04-14T03:07:14.164Z,96557.81
2023-04-14T03:09:40.707Z,96546.56
2023-04-14T03:12:08.019Z,96548.38
2023-04-14T03:14:35.846Z,96551.81
2023-04-14T03:17:02.384Z,96551.66
2023-04-14T03:19:28.961Z,96554.31
2023-04-14T03:21:55.573Z,96545.69
2023-04-14T03:24:24.589Z,96550.06
2023-04-14T03:26:57.489Z,96552.59
2023-04-14T03:29:28.803Z,96543.22
2023-04-14T03:31:55.623Z,96539.72
2023-04-14T03:34:23.157Z,96541.50
2023-04-14T03:36:50.957Z,96532.06
2023-04-14T03:39:17.531Z,96540.63
2023-04-14T03:41:47.954Z,96526.97
2023-04-14T03:44:16.480Z,96529.59
2023-04-14T03:46:43.058Z,96520.97
2023-04-14T03:49:11.510Z,96528.75
2023-04-14T03:51:39.099Z,96519.28
2023-04-14T03:54:06.229Z,96524.53
2023-04-14T03:56:33.971Z,96524.53
2023-04-14T03:59:00.951Z,96433.28
2023-04-14T04:01:27.901Z,96520.25
2023-04-14T04:03:54.716Z,96513.44
2023-04-14T04:06:21.603Z,96510.91
2023-04-14T04:08:48.741Z,96510.91
2023-04-14T04:11:18.771Z,96502.19
2023-04-14T04:13:45.649Z,96526.25
2023-04-14T04:16:12.180Z,96539.91
2023-04-14T04:18:38.975Z,96545.00
2023-04-14T04:21:05.706Z,96537.25
2023-04-14T04:23:32.948Z,96541.53
2023-04-14T04:25:59.493Z,96544.13
2023-04-14T04:28:27.026Z,96556.03
2023-04-14T04:30:53.567Z,96541.44
2023-04-14T04:33:20.403Z,96553.47
2023-04-14T04:35:46.983Z,96556.03
2023-04-14T04:38:13.526Z,96562.00
2023-04-14T04:40:40.054Z,96562.00
2023-04-14T04:43:06.632Z,96558.53
2023-04-14T04:45:44.401Z,96568.75
2023-04-14T04:48:11.067Z,96571.31
2023-04-14T04:50:37.627Z,96567.94
2023-04-14T04:53:04.171Z,96568.78
2023-04-14T04:55:31.005Z,96570.50
2023-04-14T04:57:58.070Z,96562.00
2023-04-14T05:00:26.140Z,96562.84
2023-04-14T05:02:52.783Z,96571.34
2023-04-14T05:05:19.411Z,96570.50
2023-04-14T05:07:45.938Z,96562.03
2023-04-14T05:10:12.481Z,96571.34
2023-04-14T05:12:39.048Z,96576.44
2023-04-14T05:15:06.467Z,96574.75
2023-04-14T05:17:33.076Z,96575.63
2023-04-14T05:19:59.636Z,96582.38
2023-04-14T05:22:26.190Z,96578.13
2023-04-14T05:24:52.750Z,96583.22
2023-04-14T05:27:19.248Z,96587.44
2023-04-14T05:29:45.832Z,96584.91
2023-04-14T05:32:14.444Z,96590.84
2023-04-14T05:34:41.810Z,96601.88
2023-04-14T05:37:08.320Z,96571.06
2023-04-14T05:39:35.292Z,96596.78
2023-04-14T05:42:01.856Z,96601.88
2023-04-14T05:44:28.353Z,96543.34
2023-04-14T05:46:55.021Z,96606.16
2023-04-14T05:49:21.967Z,96606.19
2023-04-14T05:51:48.518Z,96600.22
2023-04-14T05:54:15.610Z,96599.38
2023-04-14T05:56:42.135Z,96588.28
2023-04-14T05:59:08.770Z,96596.75
2023-04-14T06:01:35.500Z,96597.69
2023-04-14T06:04:03.809Z,96597.72
2023-04-14T06:06:32.547Z,96593.50
2023-04-14T06:08:59.234Z,96594.31
2023-04-14T06:11:26.184Z,96596.88
2023-04-14T06:13:52.788Z,96589.13
2023-04-14T06:16:19.414Z,96590.03
2023-04-14T06:18:45.960Z,96594.28
2023-04-14T06:21:12.577Z,96591.66
2023-04-14T06:23:39.194Z,96588.22
2023-04-14T06:26:06.100Z,96590.81
2023-04-14T06:28:32.700Z,96598.44
2023-04-14T06:31:00.479Z,96599.28
2023-04-14T06:33:27.217Z,96589.88
2023-04-14T06:35:53.893Z,96589.00
2023-04-14T06:38:20.677Z,96574.41
2023-04-14T06:40:47.842Z,96583.88
2023-04-14T06:43:15.015Z,96580.47
2023-04-14T06:45:41.763Z,96577.13
2023-04-14T06:48:08.417Z,96581.41
2023-04-14T06:50:35.019Z,96574.56
2023-04-14T06:53:01.560Z,96559.13
2023-04-14T06:55:28.135Z,96573.72
2023-04-14T06:57:54.743Z,96572.03
2023-04-14T07:00:21.731Z,96571.09
2023-04-14T07:02:48.409Z,96573.72
2023-04-14T07:05:15.231Z,96548.84
2023-04-14T07:07:41.849Z,96574.59
2023-04-14T07:10:08.873Z,96566.91
2023-04-14T07:12:35.462Z,96569.47
2023-04-14T07:15:02.067Z,96576.28
2023-04-14T07:17:28.628Z,96572.94
2023-04-14T07:19:58.200Z,96579.78
2023-04-14T07:22:24.729Z,96574.72
2023-04-14T07:24:51.873Z,96569.59
2023-04-14T07:27:18.408Z,96559.34
2023-04-14T07:29:44.972Z,96576.47
2023-04-14T07:32:13.329Z,96563.66
2023-04-14T07:34:43.588Z,96564.53
2023-04-14T07:37:10.856Z,96579.97
2023-04-14T07:39:37.437Z,96561.13
2023-04-14T07:42:04.828Z,96557.66
2023-04-14T07:44:31.358Z,96577.34
2023-04-14T07:46:58.018Z,96573.94
2023-04-14T07:49:24.569Z,96587.69
2023-04-14T07:51:51.069Z,96581.69
2023-04-14T07:54:17.559Z,96573.25
2023-04-14T07:56:44.121Z,96564.66
2023-04-14T07:59:10.738Z,96575.78
2023-04-14T08:01:37.754Z,96563.63
2023-04-14T08:04:04.539Z,96577.44
2023-04-14T08:06:31.269Z,96578.25
2023-04-14T08:08:57.993Z,96583.44
2023-04-14T08:11:24.664Z,96571.44
2023-04-14T08:13:52.938Z,96566.31
2023-04-14T08:16:19.793Z,96568.84
2023-04-14T08:18:46.377Z,96586.88
2023-04-14T08:21:12.968Z,96566.16
2023-04-14T08:23:39.596Z,96580.91
2023-04-14T08:26:06.627Z,96580.03
2023-04-14T08:28:33.263Z,96589.41
2023-04-14T08:30:59.909Z,96596.22
2023-04-14T08:33:26.547Z,96601.28
2023-04-14T08:35:59.998Z,96602.97
2023-04-14T08:38:28.883Z,96611.53
2023-04-14T08:40:56.480Z,96604.63
2023-04-14T08:43:23.381Z,96597.03
2023-04-14T08:45:53.401Z,96590.25
2023-04-14T08:48:20.578Z,96588.50
2023-04-14T08:51:10.310Z,96573.09
2023-04-14T08:53:42.895Z,96579.91
2023-04-14T08:56:09.695Z,96583.38
2023-04-14T08:58:36.286Z,96592.75
2023-04-14T09:01:03.299Z,96610.63
2023-04-14T09:03:30.217Z,96612.25
2023-04-14T09:05:57.009Z,96607.06
2023-04-14T09:08:23.752Z,96614.88
2023-04-14T09:10:50.472Z,96617.44
2023-04-14T09:13:17.230Z,96614.03
2023-04-14T09:15:43.897Z,96607.97
2023-04-14T09:18:11.455Z,96597.78
2023-04-14T09:20:41.140Z,96592.72
2023-04-14T09:23:12.257Z,96602.97
2023-04-14T09:25:39.058Z,96597.88
2023-04-14T09:28:05.748Z,96596.19
2023-04-14T09:30:32.553Z,96597.06
2023-04-14T09:32:59.152Z,96591.97
2023-04-14T09:35:43.375Z,96592.84
2023-04-14T09:38:09.921Z,96590.28
2023-04-14T09:40:36.440Z,96591.97
2023-04-14T09:43:02.991Z,96588.59
2023-04-14T09:45:45.479Z,96571.44
2023-04-14T09:48:15.325Z,96545.81
2023-04-14T09:51:11.775Z,96565.72
2023-04-14T09:53:40.357Z,96568.25
2023-04-14T09:56:10.886Z,96569.09
2023-04-14T09:58:44.107Z,96569.00
2023-04-14T10:01:18.193Z,96550.22
2023-04-14T10:03:48.612Z,96546.94
2023-04-14T10:06:17.877Z,96556.28
2023-04-14T10:08:46.850Z,96566.50
2023-04-14T10:11:17.226Z,96566.50
2023-04-14T10:13:47.684Z,96557.84
2023-04-14T10:16:14.787Z,96572.44
2023-04-14T10:18:41.605Z,96567.34
2023-04-14T10:21:08.161Z,96550.13
2023-04-14T10:23:38.601Z,96565.66
2023-04-14T10:26:12.260Z,96566.50
2023-04-14T10:28:51.626Z,96566.56
2023-04-14T10:31:29.502Z,96558.06
2023-04-14T10:33:56.172Z,96564.00
2023-04-14T10:36:24.557Z,96557.94
2023-04-14T10:38:57.630Z,96561.44
2023-04-14T10:41:24.209Z,96564.00
2023-04-14T10:43:50.995Z,96566.50
2023-04-14T10:46:18.631Z,96559.69
2023-04-14T10:48:48.807Z,96569.97
2023-04-14T10:51:17.415Z,96561.34
2023-04-14T10:53:46.442Z,96557.94
2023-04-14T10:56:13.423Z,96561.44
2023-04-14T10:58:40.043Z,96549.44
2023-04-14T11:01:29.364Z,96548.63
2023-04-14T11:03:56.922Z,96546.94
2023-04-14T11:06:45.944Z,96546.94
2023-04-14T11:09:34.775Z,96544.38
2023-04-14T11:12:24.300Z,96542.63
2023-04-14T11:15:01.609Z,96535.00
2023-04-14T11:17:30.373Z,96532.47
2023-04-14T11:19:56.991Z,96528.16
2023-04-14T11:22:42.556Z,96525.59
2023-04-14T11:25:17.787Z,96517.06
2023-04-14T11:27:44.927Z,96503.47
2023-04-14T11:30:15.543Z,96499.25
2023-04-14T11:32:52.075Z,96495.84
2023-04-14T11:35:19.125Z,96499.22
2023-04-14T11:37:48.796Z,96487.22
2023-04-14T11:40:15.927Z,96490.69
2023-04-14T11:42:49.023Z,96479.50
2023-04-14T11:45:15.733Z,96490.69
2023-04-14T11:48:01.923Z,96494.94
2023-04-14T11:50:31.384Z,96489.03
2023-04-14T11:52:59.669Z,96483.91
2023-04-14T11:55:27.076Z,96483.06
2023-04-14T11:57:54.614Z,96459.06
2023-04-14T12:00:21.329Z,96478.81
2023-04-14T12:02:48.171Z,96476.28
2023-04-14T12:05:21.120Z,96472.78
2023-04-14T12:07:50.518Z,96478.81
2023-04-14T12:10:17.812Z,96396.44
2023-04-14T12:12:44.380Z,96469.47
2023-04-14T12:15:11.488Z,96462.63
2023-04-14T12:17:38.513Z,96461.81
2023-04-14T12:20:05.581Z,96455.00
2023-04-14T12:22:32.140Z,96381.97
2023-04-14T12:24:58.727Z,96461.78
2023-04-14T12:27:25.515Z,96444.72
2023-04-14T12:29:52.330Z,96442.16
2023-04-14T12:32:18.943Z,96443.84
2023-04-14T12:34:57.553Z,96437.06
2023-04-14T12:37:26.505Z,96429.44
2023-04-14T12:39:58.532Z,96433.72
2023-04-14T12:42:25.981Z,96435.44
2023-04-14T12:45:02.243Z,96426.03
2023-04-14T12:47:29.918Z,96429.47
2023-04-14T12:49:57.056Z,96416.59
2023-04-14T12:52:39.898Z,96426.94
2023-04-14T12:55:07.817Z,96425.25
2023-04-14T12:57:34.880Z,96425.22
2023-04-14T13:00:02.054Z,96410.63
2023-04-14T13:02:30.054Z,96386.72
2023-04-14T13:04:56.984Z,96416.75
2023-04-14T13:07:23.632Z,96409.97
2023-04-14T13:09:51.630Z,96409.97
2023-04-14T13:12:18.602Z,96420.97
2023-04-14T13:14:45.300Z,96415.09
2023-04-14T13:17:11.877Z,96402.28
2023-04-14T13:19:38.461Z,96408.25
2023-04-14T13:22:05.015Z,96406.56
2023-04-14T13:24:31.582Z,96400.56
2023-04-14T13:26:58.114Z,96395.47
2023-04-14T13:29:24.704Z,96410.81
2023-04-14T13:31:51.244Z,96402.31
2023-04-14T13:34:17.854Z,96396.38
2023-04-14T13:36:45.564Z,96400.59
2023-04-14T13:39:12.415Z,96403.16
2023-04-14T13:41:39.058Z,96398.03
2023-04-14T13:44:05.681Z,96386.03
2023-04-14T13:46:40.646Z,96395.50
2023-04-14T13:49:07.931Z,96396.38
2023-04-14T13:51:34.583Z,96387.75
2023-04-14T13:54:01.406Z,96394.66
2023-04-14T13:56:28.137Z,96395.47
2023-04-14T13:58:54.905Z,96396.34
2023-04-14T14:01:21.440Z,96371.47
2023-04-14T14:03:49.967Z,96376.72
2023-04-14T14:06:16.995Z,96381.84
2023-04-14T14:08:43.587Z,96386.97
2023-04-14T14:11:10.672Z,96392.91
2023-04-14T14:13:38.670Z,96382.66
2023-04-14T14:16:06.709Z,96369.78
2023-04-14T14:18:33.767Z,96380.13
2023-04-14T14:21:00.327Z,96379.25
2023-04-14T14:23:26.934Z,96379.28
2023-04-14T14:25:54.502Z,96381.84
2023-04-14T14:28:22.255Z,96381.84
2023-04-14T14:30:48.824Z,96377.53
2023-04-14T14:33:15.353Z,96373.31
2023-04-14T14:35:41.902Z,96362.13
2023-04-14T14:38:08.513Z,96372.41
2023-04-14T14:40:35.076Z,96365.59
2023-04-14T14:43:01.679Z,96372.44
2023-04-14T14:45:30.719Z,96364.72
2023-04-14T14:47:58.143Z,96371.59
2023-04-14T14:50:24.697Z,96359.63
2023-04-14T14:52:51.212Z,96372.44
2023-04-14T14:55:17.946Z,96370.78
2023-04-14T14:57:44.460Z,96362.19
2023-04-14T15:00:11.485Z,96369.94
2023-04-14T15:02:38.649Z,96372.50
2023-04-14T15:05:07.291Z,96364.84
2023-04-14T15:07:33.900Z,96371.59
2023-04-14T15:10:01.644Z,96360.56
2023-04-14T15:12:28.235Z,96364.84
2023-04-14T15:14:54.831Z,96373.38
2023-04-14T15:17:21.423Z,96358.88
2023-04-14T15:19:48.121Z,96369.91
2023-04-14T15:22:14.902Z,96364.78
2023-04-14T15:24:41.453Z,96363.09
2023-04-14T15:27:08.037Z,96367.34
2023-04-14T15:29:34.596Z,96371.66
2023-04-14T15:32:01.346Z,96377.59
2023-04-14T15:34:28.090Z,96364.78
2023-04-14T15:36:54.662Z,96372.50
2023-04-14T15:39:21.412Z,96358.03
2023-04-14T15:41:50.479Z,96374.22
2023-04-14T15:44:17.404Z,96355.47
2023-04-14T15:46:43.912Z,96368.25
2023-04-14T15:49:10.483Z,96364.00
2023-04-14T15:51:37.028Z,96367.31
2023-04-14T15:54:04.231Z,96375.91
2023-04-14T15:56:31.154Z,96377.56
2023-04-14T15:58:57.747Z,96372.47
2023-04-14T16:01:24.316Z,96316.63
2023-04-14T16:03:52.621Z,96374.19
2023-04-14T16:06:19.539Z,96374.22
2023-04-14T16:08:46.081Z,96375.91
2023-04-14T16:11:19.610Z,96397.16
2023-04-14T16:13:46.293Z,96392.09
2023-04-14T16:16:13.644Z,96392.09
2023-04-14T16:18:40.255Z,96392.91
2023-04-14T16:21:06.827Z,96393.75
2023-04-14T16:23:33.447Z,96394.66
2023-04-14T16:26:00.942Z,96394.63
2023-04-14T16:28:28.234Z,96403.13
2023-04-14T16:30:55.365Z,96396.34
2023-04-14T16:33:21.916Z,96393.75
2023-04-14T16:35:48.540Z,96391.22
2023-04-14T16:38:15.117Z,96387.72
2023-04-14T16:40:42.699Z,96389.47
2023-04-14T16:43:09.671Z,96398.88
2023-04-14T16:45:36.482Z,96397.94
2023-04-14T16:48:03.159Z,96403.06
2023-04-14T16:50:31.922Z,96403.06
2023-04-14T16:52:58.511Z,96412.47
2023-04-14T16:55:25.111Z,96398.81
2023-04-14T16:57:51.686Z,96409.00
2023-04-14T17:00:18.919Z,96408.16
2023-04-14T17:02:45.902Z,96403.00
2023-04-14T17:05:15.750Z,96399.66
2023-04-14T17:07:42.781Z,96405.56
2023-04-14T17:10:09.839Z,96402.22
2023-04-14T17:12:39.326Z,96404.75
2023-04-14T17:15:06.716Z,96401.34
2023-04-14T17:17:33.934Z,96393.56
2023-04-14T17:20:00.563Z,96403.00
2023-04-14T17:22:27.586Z,96406.41
2023-04-14T17:24:54.512Z,96397.81
2023-04-14T17:27:21.310Z,96406.41
2023-04-14T17:29:48.352Z,96402.97
2023-04-14T17:32:14.965Z,96402.16
2023-04-14T17:34:41.589Z,96401.28
2023-04-14T17:37:08.339Z,96403.84
2023-04-14T17:39:34.842Z,96412.34
2023-04-14T17:42:01.603Z,96415.72
2023-04-14T17:44:34.979Z,96418.28
2023-04-14T17:47:03.454Z,96418.25
2023-04-14T17:49:30.393Z,96421.69
2023-04-14T17:51:57.023Z,96413.09
2023-04-14T17:54:23.553Z,96420.81
2023-04-14T17:56:50.381Z,96410.47
2023-04-14T17:59:17.443Z,96430.16
2023-04-14T18:01:44.063Z,96425.84
2023-04-14T18:04:10.895Z,96436.09
2023-04-14T18:06:37.518Z,96426.66
2023-04-14T18:09:04.125Z,96437.81
2023-04-14T18:11:31.500Z,96442.06
2023-04-14T18:13:58.130Z,96443.75
2023-04-14T18:16:25.089Z,96442.91
2023-04-14T18:18:51.676Z,96432.69
2023-04-14T18:21:18.664Z,96441.19
2023-04-14T18:23:45.154Z,96436.09
2023-04-14T18:28:41.526Z,96435.25
2023-04-14T18:31:08.707Z,96446.28
2023-04-14T18:33:35.337Z,96437.78
2023-04-14T18:36:02.327Z,96443.72
2023-04-14T18:38:28.937Z,96448.84
2023-04-14T18:41:01.772Z,96443.66
2023-04-14T18:43:28.460Z,96448.00
2023-04-14T18:45:54.982Z,96453.69
2023-04-14T18:48:21.576Z,96437.47
2023-04-14T18:50:49.152Z,96465.84
2023-04-14T18:53:15.775Z,96462.44
2023-04-14T18:55:45.131Z,96465.00
2023-04-14T18:58:12.949Z,96460.75
2023-04-14T19:00:39.966Z,96379.78
2023-04-14T19:03:08.614Z,96467.56
2023-04-14T19:05:36.925Z,96469.22
2023-04-14T19:08:07.456Z,96454.78
2023-04-14T19:10:34.423Z,96457.28
2023-04-14T19:13:00.974Z,96465.00
2023-04-14T19:15:27.890Z,96475.19
2023-04-14T19:17:55.642Z,96458.19
2023-04-14T19:20:22.406Z,96462.44
2023-04-14T19:22:49.568Z,96469.22
2023-04-14T19:25:16.740Z,96475.16
2023-04-14T19:27:43.526Z,96477.72
2023-04-14T19:30:10.823Z,96476.84
2023-04-14T19:32:37.475Z,96478.59
2023-04-14T19:35:06.462Z,96479.41
2023-04-14T19:37:33.897Z,96487.06
2023-04-14T19:40:01.043Z,96481.94
2023-04-14T19:42:27.811Z,96466.53
2023-04-14T19:44:54.896Z,96476.00
2023-04-14T19:47:21.910Z,96477.69
2023-04-14T19:49:49.449Z,96484.50
2023-04-14T19:52:16.014Z,96484.50
2023-04-14T19:54:42.533Z,96488.75
2023-04-14T19:57:09.101Z,96482.81
2023-04-14T19:59:35.625Z,96476.00
2023-04-14T20:02:04.972Z,96479.41
2023-04-14T20:04:31.741Z,96476.84
2023-04-14T20:06:58.340Z,96473.47
2023-04-14T20:09:26.004Z,96478.56
2023-04-14T20:11:52.631Z,96471.75
2023-04-14T20:14:19.379Z,96467.50
2023-04-14T20:16:46.019Z,96464.97
2023-04-14T20:19:12.778Z,96468.38
2023-04-14T20:21:39.622Z,96470.94
2023-04-14T20:24:06.395Z,96472.66
2023-04-14T20:26:34.933Z,96458.97
2023-04-14T20:29:01.697Z,96458.97
2023-04-14T20:31:29.101Z,96455.66
2023-04-14T20:33:56.259Z,96462.44
2023-04-14T20:36:23.397Z,96458.19
2023-04-14T20:38:49.926Z,96456.44
2023-04-14T20:41:16.505Z,96453.06
2023-04-14T20:43:43.575Z,96459.00
2023-04-14T20:46:11.141Z,96456.44
2023-04-14T20:48:37.759Z,96453.06
2023-04-14T20:51:04.380Z,96450.50
2023-04-14T20:53:30.944Z,96459.84
2023-04-14T20:55:57.465Z,96451.31
2023-04-14T20:58:24.614Z,96447.91
2023-04-14T21:00:51.390Z,96451.28
2023-04-14T21:03:18.060Z,96458.13
2023-04-14T21:05:44.866Z,96444.38
2023-04-14T21:08:12.558Z,96456.41
2023-04-14T21:11:02.235Z,96446.19
2023-04-14T21:15:26.616Z,96441.00
2023-04-14T21:16:12.796Z,96448.75
2023-04-14T21:18:39.428Z,96446.19
2023-04-14T21:21:06.590Z,96441.94
2023-04-14T21:23:35.284Z,96447.06
2023-04-14T21:26:01.866Z,96445.34
2023-04-14T21:28:28.388Z,96450.47
2023-04-14T21:31:00.504Z,96450.47
2023-04-14T21:33:30.841Z,96447.88
2023-04-14T21:35:57.385Z,96449.63
2023-04-14T21:38:24.522Z,96453.81
2023-04-14T21:40:51.571Z,96445.34
2023-04-14T21:43:18.257Z,96446.13
2023-04-14T21:45:44.914Z,96447.03
2023-04-14T21:48:12.600Z,96444.50
2023-04-14T21:50:39.723Z,96448.75
2023-04-14T21:53:06.284Z,96430.72
2023-04-14T21:55:32.781Z,96447.06
2023-04-14T21:57:59.348Z,96442.81
2023-04-14T22:00:26.686Z,96445.34
2023-04-14T22:02:53.439Z,96450.47
2023-04-14T22:05:20.188Z,96441.94
2023-04-14T22:07:46.728Z,96431.59
2023-04-14T22:10:13.295Z,96441.94
2023-04-14T22:12:39.913Z,96441.94
2023-04-14T22:15:08.715Z,96441.06
2023-04-14T22:17:36.532Z,96436.81
2023-04-14T22:20:05.995Z,96438.53
2023-04-14T22:22:32.985Z,96437.69
2023-04-14T22:25:00.179Z,96432.56
2023-04-14T22:27:26.915Z,96426.63
2023-04-14T22:29:54.032Z,96423.09
2023-04-14T22:32:20.741Z,96419.78
2023-04-14T22:34:47.226Z,96430.81
2023-04-14T22:37:13.824Z,96418.09
2023-04-14T22:39:40.680Z,96424.06
2023-04-14T22:42:07.236Z,96430.00
2023-04-14T22:44:33.802Z,96416.41
2023-04-14T22:47:01.025Z,96422.34
2023-04-14T22:49:27.604Z,96424.94
2023-04-14T22:51:54.155Z,96421.50
2023-04-14T22:54:20.708Z,96414.72
2023-04-14T22:56:48.197Z,96424.94
2023-04-14T22:59:16.711Z,96423.22
2023-04-14T23:01:43.296Z,96419.84
2023-04-14T23:04:10.025Z,96433.41
2023-04-14T23:06:36.991Z,96424.09
2023-04-14T23:09:03.816Z,96418.13
2023-04-14T23:11:30.481Z,96423.22
2023-04-14T23:13:57.293Z,96424.09
2023-04-14T23:16:23.949Z,96436.84
2023-04-14T23:18:52.784Z,96423.22
2023-04-14T23:21:22.058Z,96429.16
2023-04-14T23:23:49.397Z,96422.38
2023-04-14T23:26:17.407Z,96430.00
2023-04-14T23:28:44.017Z,96419.84
2023-04-14T23:31:10.958Z,96419.84
2023-04-14T23:33:37.568Z,96423.22
2023-04-14T23:36:04.258Z,96424.06
2023-04-14T23:38:30.781Z,96420.66
2023-04-14T23:40:59.031Z,96413.84
2023-04-14T23:43:27.396Z,96415.53
2023-04-14T23:45:53.997Z,96403.56
2023-04-14T23:48:20.777Z,96415.53
2023-04-14T23:51:00.567Z,96408.69
2023-04-14T23:53:34.127Z,96406.19
2023-04-14T23:56:00.910Z,96402.78
2023-04-14T23:58:30.335Z,96402.78
